createdAt,value
2018-03-06T00:02:01.724Z,35.57
2018-03-06T00:04:30.225Z,37.03
2018-03-06T00:06:57.962Z,37.43
2018-03-06T00:09:25.670Z,36.33
2018-03-06T00:11:53.443Z,35.20
2018-03-06T00:14:21.295Z,36.60
2018-03-06T00:16:49.819Z,33.67
2018-03-06T00:19:17.631Z,35.37
2018-03-06T00:21:45.341Z,35.43
2018-03-06T00:24:13.960Z,31.37
2018-03-06T00:26:41.713Z,36.50
2018-03-06T00:29:10.198Z,32.80
2018-03-06T00:31:37.913Z,34.83
2018-03-06T00:34:05.609Z,36.60
2018-03-06T00:36:34.084Z,34.03
2018-03-06T00:39:02.686Z,36.70
2018-03-06T00:41:30.472Z,37.00
2018-03-06T00:43:58.194Z,38.80
2018-03-06T00:46:26.675Z,39.80
2018-03-06T00:48:55.182Z,36.67
2018-03-06T00:51:22.884Z,36.70
2018-03-06T00:53:50.614Z,37.90
2018-03-06T00:56:18.308Z,38.10
2018-03-06T00:58:46.109Z,36.70
2018-03-06T01:01:14.572Z,37.23
2018-03-06T01:03:43.048Z,35.07
2018-03-06T01:06:10.809Z,36.07
2018-03-06T01:08:38.536Z,36.83
2018-03-06T01:11:06.239Z,36.20
2018-03-06T01:13:33.996Z,34.90
2018-03-06T01:16:01.800Z,35.33
2018-03-06T01:18:30.268Z,34.47
2018-03-06T01:20:58.716Z,32.20
2018-03-06T01:23:26.388Z,30.30
2018-03-06T01:25:54.159Z,31.23
2018-03-06T01:28:21.866Z,33.90
2018-03-06T01:30:49.573Z,30.57
2018-03-06T01:33:17.307Z,30.93
2018-03-06T01:35:45.748Z,33.27
2018-03-06T01:38:13.443Z,31.07
2018-03-06T01:40:41.108Z,30.33
2018-03-06T01:43:08.917Z,29.83
2018-03-06T01:45:36.650Z,29.60
2018-03-06T01:48:04.347Z,32.57
2018-03-06T01:50:32.831Z,31.40
2018-03-06T01:53:01.290Z,29.33
2018-03-06T01:55:29.047Z,31.97
2018-03-06T01:57:56.766Z,32.10
2018-03-06T02:00:24.438Z,31.00
2018-03-06T02:02:52.189Z,33.80
2018-03-06T02:05:19.878Z,30.80
2018-03-06T02:07:47.622Z,29.47
2018-03-06T02:10:15.376Z,32.07
2018-03-06T02:12:43.112Z,30.80
2018-03-06T02:15:11.577Z,29.37
2018-03-06T02:17:39.278Z,32.93
2018-03-06T02:20:07.107Z,32.60
2018-03-06T02:22:35.562Z,29.87
2018-03-06T02:25:03.569Z,33.43
2018-03-06T02:27:31.243Z,31.40
2018-03-06T02:29:59.698Z,34.80
2018-03-06T02:32:28.263Z,33.23
2018-03-06T02:34:56.011Z,29.43
2018-03-06T02:37:23.782Z,30.67
2018-03-06T02:39:51.497Z,32.40
2018-03-06T02:42:20.047Z,30.90
2018-03-06T02:44:47.766Z,31.73
2018-03-06T02:47:15.457Z,31.37
2018-03-06T02:49:43.161Z,31.73
2018-03-06T02:52:11.618Z,32.17
2018-03-06T02:54:39.367Z,33.03
2018-03-06T02:57:07.055Z,31.13
2018-03-06T02:59:35.510Z,32.37
2018-03-06T03:02:03.211Z,30.47
2018-03-06T03:04:30.922Z,33.20
2018-03-06T03:06:58.637Z,31.80
2018-03-06T03:09:26.308Z,33.80
2018-03-06T03:11:54.034Z,30.47
2018-03-06T03:14:22.511Z,32.60
2018-03-06T03:16:50.206Z,31.40
2018-03-06T03:19:18.696Z,32.90
2018-03-06T03:21:46.363Z,33.30
2018-03-06T03:24:14.042Z,35.50
2018-03-06T03:26:41.689Z,31.50
2018-03-06T03:29:09.353Z,33.63
2018-03-06T03:31:37.017Z,33.27
2018-03-06T03:34:04.657Z,34.07
2018-03-06T03:36:32.322Z,33.90
2018-03-06T03:38:59.983Z,35.43
2018-03-06T03:41:27.635Z,35.90
2018-03-06T03:43:56.068Z,35.97
2018-03-06T03:46:23.683Z,35.13
2018-03-06T03:48:51.358Z,33.83
2018-03-06T03:51:19.021Z,36.17
2018-03-06T03:53:46.725Z,34.80
2018-03-06T03:56:14.375Z,35.47
2018-03-06T03:58:41.996Z,34.00
2018-03-06T04:01:09.630Z,34.50
2018-03-06T04:03:37.243Z,36.70
2018-03-06T04:06:04.922Z,36.10
2018-03-06T04:08:32.566Z,30.63
2018-03-06T04:11:00.216Z,34.10
2018-03-06T04:13:27.895Z,34.60
2018-03-06T04:15:55.526Z,36.63
2018-03-06T04:18:23.182Z,35.03
2018-03-06T04:20:50.835Z,36.40
2018-03-06T04:23:18.492Z,35.90
2018-03-06T04:25:46.137Z,40.33
2018-03-06T04:28:14.536Z,36.13
2018-03-06T04:30:42.180Z,36.00
2018-03-06T04:33:10.564Z,36.67
2018-03-06T04:35:39.027Z,36.10
2018-03-06T04:38:06.725Z,35.63
2018-03-06T04:40:34.353Z,36.03
2018-03-06T04:43:02.004Z,35.70
2018-03-06T04:45:29.612Z,34.17
2018-03-06T04:47:57.259Z,34.20
2018-03-06T04:50:24.888Z,32.93
2018-03-06T04:52:52.547Z,36.30
2018-03-06T04:55:20.177Z,36.00
2018-03-06T04:57:47.796Z,35.37
2018-03-06T05:00:16.223Z,35.27
2018-03-06T05:02:43.845Z,33.30
2018-03-06T05:05:11.521Z,32.97
2018-03-06T05:07:39.140Z,37.33
2018-03-06T05:10:07.540Z,34.73
2018-03-06T05:12:35.200Z,34.00
2018-03-06T05:15:03.723Z,35.63
2018-03-06T05:17:31.399Z,34.50
2018-03-06T05:19:59.032Z,35.03
2018-03-06T05:22:26.704Z,35.53
2018-03-06T05:24:54.328Z,36.87
2018-03-06T05:27:21.968Z,40.10
2018-03-06T05:29:50.420Z,35.23
2018-03-06T05:32:18.071Z,33.90
2018-03-06T05:34:45.751Z,34.20
2018-03-06T05:37:13.396Z,34.27
2018-03-06T05:39:41.028Z,33.83
2018-03-06T05:42:08.718Z,34.03
2018-03-06T05:44:36.346Z,34.40
2018-03-06T05:47:04.042Z,36.83
2018-03-06T05:49:31.693Z,33.83
2018-03-06T05:51:59.354Z,33.83
2018-03-06T05:54:26.969Z,37.07
2018-03-06T05:56:55.462Z,36.23
2018-03-06T05:59:23.132Z,36.50
2018-03-06T06:01:50.831Z,38.63
2018-03-06T06:04:18.503Z,35.60
2018-03-06T06:06:46.174Z,37.33
2018-03-06T06:09:14.637Z,34.10
2018-03-06T06:11:42.339Z,34.53
2018-03-06T06:14:10.052Z,36.43
2018-03-06T06:16:37.701Z,35.77
2018-03-06T06:19:05.536Z,37.90
2018-03-06T06:21:33.938Z,35.93
2018-03-06T06:24:01.640Z,36.23
2018-03-06T06:26:29.260Z,37.40
2018-03-06T06:28:56.929Z,38.23
2018-03-06T06:31:24.614Z,36.70
2018-03-06T06:33:52.350Z,35.33
2018-03-06T06:36:20.009Z,37.27
2018-03-06T06:38:47.614Z,38.00
2018-03-06T06:41:15.229Z,39.53
2018-03-06T06:43:42.894Z,36.87
2018-03-06T06:46:10.500Z,37.50
2018-03-06T06:48:38.183Z,35.30
2018-03-06T06:51:05.803Z,35.30
2018-03-06T06:53:33.458Z,38.67
2018-03-06T06:56:01.098Z,37.17
2018-03-06T06:58:28.788Z,34.37
2018-03-06T07:00:56.439Z,38.13
2018-03-06T07:03:24.125Z,38.97
2018-03-06T07:05:51.760Z,36.20
2018-03-06T07:08:19.422Z,39.40
2018-03-06T07:10:47.118Z,37.23
2018-03-06T07:13:14.825Z,36.80
2018-03-06T07:15:42.519Z,38.47
2018-03-06T07:18:10.219Z,38.40
2018-03-06T07:20:37.901Z,35.10
2018-03-06T07:23:05.545Z,39.40
2018-03-06T07:25:38.415Z,36.33
2018-03-06T07:28:06.123Z,35.60
2018-03-06T07:30:33.793Z,37.37
2018-03-06T07:33:01.508Z,35.70
2018-03-06T07:35:29.995Z,38.37
2018-03-06T07:37:58.474Z,37.17
2018-03-06T07:40:26.886Z,35.33
2018-03-06T07:42:54.583Z,35.13
2018-03-06T07:45:22.264Z,36.40
2018-03-06T07:47:49.933Z,37.17
2018-03-06T07:50:17.583Z,37.50
2018-03-06T07:52:45.246Z,36.33
2018-03-06T07:55:12.936Z,38.50
2018-03-06T07:57:41.373Z,36.60
2018-03-06T08:00:09.023Z,35.77
2018-03-06T08:02:36.761Z,37.40
2018-03-06T08:05:04.571Z,37.20
2018-03-06T08:07:32.235Z,36.57
2018-03-06T08:09:59.897Z,39.97
2018-03-06T08:12:27.579Z,38.37
2018-03-06T08:14:56.003Z,35.83
2018-03-06T08:17:23.673Z,37.80
2018-03-06T08:19:51.329Z,38.27
2018-03-06T08:22:19.391Z,34.73
2018-03-06T08:24:47.227Z,35.77
2018-03-06T08:27:17.539Z,37.17
2018-03-06T08:29:45.947Z,39.50
2018-03-06T08:32:20.390Z,35.63
2018-03-06T08:34:48.100Z,37.13
2018-03-06T08:37:18.992Z,37.27
2018-03-06T08:39:47.082Z,35.93
2018-03-06T08:42:14.828Z,36.90
2018-03-06T08:44:42.644Z,36.37
2018-03-06T08:47:11.420Z,35.70
2018-03-06T08:49:39.179Z,34.10
2018-03-06T08:52:09.402Z,33.33
2018-03-06T08:54:37.040Z,35.53
2018-03-06T08:57:05.094Z,36.40
2018-03-06T08:59:32.799Z,36.37
2018-03-06T09:02:01.233Z,35.03
2018-03-06T09:04:28.940Z,35.73
2018-03-06T09:06:57.414Z,36.80
2018-03-06T09:09:25.055Z,34.70
2018-03-06T09:11:52.820Z,37.90
2018-03-06T09:14:20.435Z,34.07
2018-03-06T09:16:48.087Z,34.10
2018-03-06T09:19:15.755Z,31.13
2018-03-06T09:21:43.384Z,33.00
2018-03-06T09:24:11.815Z,35.10
2018-03-06T09:26:39.455Z,35.40
2018-03-06T09:29:07.173Z,36.13
2018-03-06T09:31:34.779Z,34.03
2018-03-06T09:34:02.437Z,35.60
2018-03-06T09:36:30.078Z,34.30
2018-03-06T09:38:58.463Z,32.10
2018-03-06T09:41:26.881Z,35.27
2018-03-06T09:43:54.555Z,32.90
2018-03-06T09:46:22.247Z,35.50
2018-03-06T09:48:49.933Z,34.43
2018-03-06T09:51:18.374Z,34.30
2018-03-06T09:53:46.146Z,36.13
2018-03-06T09:56:14.574Z,33.00
2018-03-06T09:58:42.245Z,34.40
2018-03-06T10:01:09.909Z,34.37
2018-03-06T10:03:37.560Z,37.17
2018-03-06T10:06:05.357Z,33.70
2018-03-06T10:08:34.973Z,31.57
2018-03-06T10:11:02.956Z,33.80
2018-03-06T10:13:31.385Z,32.60
2018-03-06T10:15:59.067Z,39.20
2018-03-06T10:18:26.731Z,35.47
2018-03-06T10:20:54.718Z,32.70
2018-03-06T10:23:23.146Z,36.87
2018-03-06T10:25:50.777Z,35.00
2018-03-06T10:28:19.137Z,34.40
2018-03-06T10:30:46.809Z,35.20
2018-03-06T10:33:14.408Z,30.33
2018-03-06T10:35:42.003Z,32.77
2018-03-06T10:38:09.634Z,33.43
2018-03-06T10:40:37.241Z,32.80
2018-03-06T10:43:04.966Z,32.17
2018-03-06T10:45:32.563Z,31.03
2018-03-06T10:48:00.217Z,34.30
2018-03-06T10:50:27.806Z,31.50
2018-03-06T10:52:56.155Z,32.93
2018-03-06T10:55:23.779Z,31.93
2018-03-06T10:57:51.374Z,33.87
2018-03-06T11:00:24.608Z,28.97
2018-03-06T11:02:52.998Z,31.83
2018-03-06T11:05:20.601Z,32.40
2018-03-06T11:07:48.227Z,32.00
2018-03-06T11:10:15.825Z,34.70
2018-03-06T11:12:43.444Z,32.43
2018-03-06T11:15:11.034Z,33.00
2018-03-06T11:17:38.665Z,32.17
2018-03-06T11:20:06.263Z,32.50
2018-03-06T11:22:33.880Z,34.07
2018-03-06T11:25:01.572Z,30.87
2018-03-06T11:27:29.214Z,32.60
2018-03-06T11:29:56.817Z,32.87
2018-03-06T11:32:24.402Z,31.23
2018-03-06T11:34:52.784Z,33.50
2018-03-06T11:37:20.372Z,30.77
2018-03-06T11:39:47.980Z,33.50
2018-03-06T11:42:16.355Z,31.60
2018-03-06T11:44:43.955Z,30.40
2018-03-06T11:47:11.584Z,33.33
2018-03-06T11:49:39.945Z,32.10
2018-03-06T11:52:07.805Z,31.27
2018-03-06T11:54:35.416Z,32.67
2018-03-06T11:57:03.036Z,32.17
2018-03-06T11:59:30.682Z,34.63
2018-03-06T12:01:58.294Z,31.23
2018-03-06T12:04:25.897Z,32.70
2018-03-06T12:06:53.532Z,33.47
2018-03-06T12:09:21.124Z,33.47
2018-03-06T12:11:48.738Z,32.70
2018-03-06T12:14:16.374Z,32.73
2018-03-06T12:16:44.724Z,29.27
2018-03-06T12:19:12.343Z,30.80
2018-03-06T12:21:39.948Z,32.77
2018-03-06T12:24:07.731Z,30.17
2018-03-06T12:26:36.093Z,31.93
2018-03-06T12:29:03.683Z,31.27
2018-03-06T12:31:32.065Z,28.40
2018-03-06T12:33:59.662Z,30.60
2018-03-06T12:36:27.295Z,30.43
2018-03-06T12:38:54.983Z,28.60
2018-03-06T12:41:22.606Z,29.53
2018-03-06T12:43:50.259Z,31.37
2018-03-06T12:46:18.648Z,29.67
2018-03-06T12:48:46.286Z,29.83
2018-03-06T12:51:15.022Z,31.53
2018-03-06T12:53:42.650Z,31.17
2018-03-06T12:56:10.250Z,27.70
2018-03-06T12:58:37.841Z,28.90
2018-03-06T13:01:05.468Z,28.93
2018-03-06T13:03:33.064Z,28.60
2018-03-06T13:06:00.696Z,31.07
2018-03-06T13:08:28.309Z,27.20
2018-03-06T13:10:56.663Z,29.83
2018-03-06T13:13:24.282Z,29.63
2018-03-06T13:15:51.876Z,28.90
2018-03-06T13:18:19.504Z,28.40
2018-03-06T13:20:47.080Z,28.23
2018-03-06T13:23:14.696Z,28.73
2018-03-06T13:25:42.290Z,29.67
2018-03-06T13:28:10.638Z,28.50
2018-03-06T13:30:38.259Z,30.07
2018-03-06T13:33:06.867Z,31.83
2018-03-06T13:35:35.250Z,30.27
2018-03-06T13:38:02.831Z,30.00
2018-03-06T13:40:30.454Z,30.93
2018-03-06T13:42:58.819Z,29.83
2018-03-06T13:45:26.447Z,28.77
2018-03-06T13:47:54.377Z,32.73
2018-03-06T13:50:21.997Z,30.87
2018-03-06T13:52:49.578Z,28.47
2018-03-06T13:55:17.926Z,30.40
2018-03-06T13:57:45.543Z,27.80
2018-03-06T14:00:13.243Z,30.33
2018-03-06T14:02:40.862Z,26.50
2018-03-06T14:05:08.455Z,30.70
2018-03-06T14:07:36.093Z,29.10
2018-03-06T14:10:03.865Z,28.90
2018-03-06T14:12:31.541Z,31.07
2018-03-06T14:14:59.144Z,30.27
2018-03-06T14:17:27.503Z,27.93
2018-03-06T14:19:55.117Z,29.43
2018-03-06T14:22:22.702Z,28.97
2018-03-06T14:24:50.309Z,29.70
2018-03-06T14:27:18.673Z,30.57
2018-03-06T14:29:47.054Z,31.03
2018-03-06T14:32:15.412Z,31.50
2018-03-06T14:34:43.823Z,31.03
2018-03-06T14:37:11.434Z,30.80
2018-03-06T14:39:39.057Z,29.80
2018-03-06T14:42:06.657Z,30.07
2018-03-06T14:44:34.296Z,30.17
2018-03-06T14:47:01.892Z,27.37
2018-03-06T14:49:29.485Z,31.30
2018-03-06T14:51:57.861Z,31.33
2018-03-06T14:54:25.465Z,30.87
2018-03-06T14:56:53.085Z,30.10
2018-03-06T14:59:20.688Z,29.40
2018-03-06T15:01:48.319Z,33.10
2018-03-06T15:04:15.929Z,31.23
2018-03-06T15:06:43.585Z,31.47
2018-03-06T15:09:11.185Z,33.50
2018-03-06T15:11:38.822Z,37.93
2018-03-06T15:14:06.438Z,39.70
2018-03-06T15:16:34.069Z,43.60
2018-03-06T15:19:01.806Z,45.33
2018-03-06T15:21:30.224Z,47.97
2018-03-06T15:23:57.845Z,46.90
2018-03-06T15:26:26.228Z,49.93
2018-03-06T15:28:54.638Z,48.57
2018-03-06T15:31:22.245Z,49.60
2018-03-06T15:33:49.897Z,49.27
2018-03-06T15:36:17.500Z,50.00
2018-03-06T15:38:45.895Z,49.97
2018-03-06T15:41:13.508Z,52.17
2018-03-06T15:43:41.171Z,53.50
2018-03-06T15:46:08.811Z,53.37
2018-03-06T15:48:36.460Z,53.37
2018-03-06T15:51:04.084Z,52.57
2018-03-06T15:53:32.466Z,52.57
2018-03-06T15:56:00.866Z,56.73
2018-03-06T15:58:28.465Z,51.43
2018-03-06T16:00:56.146Z,55.30
2018-03-06T16:03:24.565Z,55.40
2018-03-06T16:05:52.218Z,56.20
2018-03-06T16:08:19.859Z,56.20
2018-03-06T16:10:48.238Z,58.00
2018-03-06T16:13:16.632Z,57.77
2018-03-06T16:15:44.268Z,56.63
2018-03-06T16:18:12.676Z,57.43
2018-03-06T16:20:40.297Z,59.43
2018-03-06T16:23:08.098Z,59.27
2018-03-06T16:25:35.722Z,56.83
2018-03-06T16:28:04.209Z,62.30
2018-03-06T16:30:32.610Z,60.57
2018-03-06T16:33:00.270Z,57.90
2018-03-06T16:35:27.901Z,58.63
2018-03-06T16:37:56.375Z,54.97
2018-03-06T16:40:23.992Z,60.40
2018-03-06T16:42:51.604Z,57.43
2018-03-06T16:45:19.247Z,61.83
2018-03-06T16:47:46.855Z,61.70
2018-03-06T16:50:14.544Z,61.30
2018-03-06T16:52:42.144Z,59.93
2018-03-06T16:55:09.803Z,58.13
2018-03-06T16:57:37.399Z,62.57
2018-03-06T17:00:05.258Z,58.93
2018-03-06T17:02:32.918Z,62.10
2018-03-06T17:05:00.549Z,62.70
2018-03-06T17:07:29.059Z,58.20
2018-03-06T17:09:56.705Z,57.53
2018-03-06T17:12:25.098Z,63.30
2018-03-06T17:14:52.723Z,57.77
2018-03-06T17:17:20.362Z,61.40
2018-03-06T17:19:47.960Z,55.40
2018-03-06T17:22:16.364Z,60.00
2018-03-06T17:24:43.950Z,65.20
2018-03-06T17:27:11.607Z,59.30
2018-03-06T17:29:39.204Z,60.20
2018-03-06T17:32:06.841Z,60.97
2018-03-06T17:34:34.473Z,60.53
2018-03-06T17:37:02.130Z,60.97
2018-03-06T17:39:29.728Z,64.00
2018-03-06T17:41:57.346Z,63.97
2018-03-06T17:44:24.934Z,63.97
2018-03-06T17:46:52.578Z,64.67
2018-03-06T17:49:20.179Z,63.47
2018-03-06T17:51:47.771Z,64.67
2018-03-06T17:54:16.151Z,59.00
2018-03-06T17:56:44.534Z,60.83
2018-03-06T17:59:12.933Z,60.53
2018-03-06T18:01:40.537Z,65.07
2018-03-06T18:04:08.160Z,65.27
2018-03-06T18:06:35.761Z,62.40
2018-03-06T18:09:03.412Z,59.70
2018-03-06T18:11:31.050Z,63.13
2018-03-06T18:13:58.670Z,60.00
2018-03-06T18:16:27.020Z,59.87
2018-03-06T18:18:54.647Z,57.70
2018-03-06T18:21:23.020Z,63.30
2018-03-06T18:23:50.648Z,60.03
2018-03-06T18:26:19.028Z,63.30
2018-03-06T18:28:47.397Z,62.17
2018-03-06T18:31:15.796Z,64.37
2018-03-06T18:33:43.383Z,63.80
2018-03-06T18:36:10.998Z,66.70
2018-03-06T18:38:39.356Z,60.90
2018-03-06T18:41:07.076Z,62.00
2018-03-06T18:43:34.663Z,62.80
2018-03-06T18:46:02.297Z,66.50
2018-03-06T18:48:29.900Z,57.70
2018-03-06T18:51:09.283Z,62.90
2018-03-06T18:53:36.881Z,62.73
2018-03-06T18:56:04.497Z,58.57
2018-03-06T18:58:32.101Z,59.43
2018-03-06T19:01:11.522Z,61.97
2018-03-06T19:03:50.923Z,58.17
2018-03-06T19:06:24.272Z,60.10
2018-03-06T19:08:51.868Z,64.87
2018-03-06T19:11:20.296Z,63.43
2018-03-06T19:13:47.897Z,59.37
2018-03-06T19:16:16.305Z,63.80
2018-03-06T19:18:43.913Z,63.70
2018-03-06T19:21:11.526Z,57.77
2018-03-06T19:23:39.114Z,60.00
2018-03-06T19:26:06.800Z,62.57
2018-03-06T19:28:35.184Z,61.50
2018-03-06T19:31:03.019Z,61.10
2018-03-06T19:33:30.589Z,62.03
2018-03-06T19:35:58.183Z,59.67
2018-03-06T19:38:26.593Z,61.07
2018-03-06T19:40:54.216Z,58.50
2018-03-06T19:43:22.613Z,60.80
2018-03-06T19:45:51.149Z,64.07
2018-03-06T19:48:18.790Z,62.10
2018-03-06T19:50:46.384Z,60.20
2018-03-06T19:53:14.007Z,58.17
2018-03-06T19:55:41.588Z,61.57
2018-03-06T19:58:09.208Z,56.37
2018-03-06T20:00:36.816Z,60.50
2018-03-06T20:03:04.452Z,58.07
2018-03-06T20:05:32.042Z,55.97
2018-03-06T20:07:59.666Z,58.47
2018-03-06T20:10:27.300Z,58.80
2018-03-06T20:12:54.900Z,52.57
2018-03-06T20:15:22.544Z,54.87
2018-03-06T20:17:50.141Z,56.23
2018-03-06T20:20:17.761Z,54.47
2018-03-06T20:22:45.376Z,58.30
2018-03-06T20:25:19.359Z,58.20
2018-03-06T20:27:46.931Z,57.30
2018-03-06T20:33:22.930Z,52.80
2018-03-06T20:35:51.318Z,53.17
2018-03-06T20:38:25.530Z,50.40
2018-03-06T20:40:53.154Z,54.30
2018-03-06T20:43:20.747Z,52.63
2018-03-06T20:45:54.748Z,51.00
2018-03-06T20:48:23.114Z,56.37
2018-03-06T20:50:50.732Z,52.23
2018-03-06T20:53:24.033Z,55.03
2018-03-06T20:55:51.659Z,51.03
2018-03-06T20:58:19.274Z,49.57
2018-03-06T21:00:46.924Z,50.70
2018-03-06T21:03:14.498Z,51.37
2018-03-06T21:05:42.098Z,50.40
2018-03-06T21:08:09.766Z,49.90
2018-03-06T21:10:37.359Z,52.10
2018-03-06T21:13:04.968Z,51.30
2018-03-06T21:15:33.326Z,48.07
2018-03-06T21:18:00.948Z,49.13
2018-03-06T21:20:28.533Z,50.23
2018-03-06T21:22:56.168Z,50.03
2018-03-06T21:25:24.521Z,49.70
2018-03-06T21:27:52.848Z,47.10
2018-03-06T21:30:20.466Z,49.27
2018-03-06T21:32:48.072Z,47.20
2018-03-06T21:35:15.734Z,46.70
2018-03-06T21:37:43.328Z,47.27
2018-03-06T21:40:10.902Z,47.60
2018-03-06T21:42:39.534Z,46.80
2018-03-06T21:45:07.290Z,46.43
2018-03-06T21:47:34.925Z,45.30
2018-03-06T21:50:02.570Z,43.83
2018-03-06T21:52:30.214Z,47.97
2018-03-06T21:54:58.572Z,44.40
2018-03-06T21:57:26.928Z,44.40
2018-03-06T21:59:54.540Z,44.40
2018-03-06T22:02:22.133Z,46.77
2018-03-06T22:04:49.806Z,45.57
2018-03-06T22:07:17.403Z,44.13
2018-03-06T22:09:45.765Z,46.27
2018-03-06T22:12:13.495Z,46.67
2018-03-06T22:14:41.084Z,44.67
2018-03-06T22:17:08.701Z,44.77
2018-03-06T22:19:36.296Z,44.20
2018-03-06T22:22:04.022Z,44.40
2018-03-06T22:24:31.626Z,44.27
2018-03-06T22:26:59.259Z,44.67
2018-03-06T22:29:26.855Z,45.73
2018-03-06T22:31:55.209Z,41.80
2018-03-06T22:34:22.834Z,42.17
2018-03-06T22:36:50.436Z,44.47
2018-03-06T22:39:18.059Z,43.77
2018-03-06T22:41:45.653Z,42.57
2018-03-06T22:44:13.291Z,41.10
2018-03-06T22:46:40.881Z,42.40
2018-03-06T22:49:08.482Z,42.17
2018-03-06T22:51:36.106Z,42.73
2018-03-06T22:54:03.759Z,43.50
2018-03-06T22:56:31.379Z,44.10
2018-03-06T22:58:58.979Z,40.97
2018-03-06T23:01:26.603Z,43.00
2018-03-06T23:03:54.193Z,40.83
2018-03-06T23:06:21.947Z,40.37
2018-03-06T23:08:49.544Z,41.77
2018-03-06T23:11:17.900Z,41.60
2018-03-06T23:13:45.527Z,40.90
2018-03-06T23:16:13.150Z,38.30
2018-03-06T23:18:40.787Z,42.57
2018-03-06T23:21:08.392Z,39.70
2018-03-06T23:23:36.036Z,36.90
2018-03-06T23:26:03.632Z,39.13
2018-03-06T23:28:31.234Z,42.70
2018-03-06T23:30:58.884Z,39.67
2018-03-06T23:33:26.488Z,42.63
2018-03-06T23:35:54.122Z,40.70
2018-03-06T23:38:22.493Z,39.97
2018-03-06T23:40:50.932Z,39.13
2018-03-06T23:43:18.537Z,37.70
2018-03-06T23:45:47.176Z,42.83
2018-03-06T23:48:14.810Z,41.20
2018-03-06T23:50:42.407Z,43.03
2018-03-06T23:53:10.051Z,38.17
2018-03-06T23:55:37.649Z,41.10
2018-03-06T23:58:05.258Z,40.77
